Startpagina
METAR-TAF:

METAR-TAF

Vliegvelden :

Vientiane, Laos

breedte: 17-57N, lengte: 102-34E, hoogte: 171 m

Actueel weer

Dit bericht is 33 minuten geleden gemaakt, om 06:00 UTC
Wind 6 kt uit het oosten
Temperatuur 33°C
Vochtigheid 53%
Druk 1010 hPa
Zicht: 8000 m
Verspreide wolken op 2000 ft
Weinig wolken op 5000 ft

METAR: VLVT 190600Z 09006KT 8000 SCT020 FEW050 33/22 Q1010 NOSIG

Tijdstip: 13:33 (06:33 UTC)

Verwachting

Dit bericht is 1 uur en het 33 minuten geleden gemaakt, om 05:00 UTC
Verwachting geldig van 19 om 06 UTC tot 20 om 06 UTC
Wind 6 kt uit het oosten
Zicht: 9000 m
Verspreide wolken op 2000 ft
Verspreide wolken op 5000 ft
Weinig wolken op 20000 ft
Tijdelijke
van 19 om 12 UTC tot 19 om 16 UTC
Zicht: 4000 m
Verspreide wolken op 5000 ft
Weinig wolken op 20000 ft
nevel

TAF: VLVT 190500Z 1906/2006 09006KT 9000 SCT020 SCT050 FEW200 TEMPO 1912/1916 4000 BR SCT050 FEW200

Waarnemingen en weersverwachtingen van meer dan 4000 vliegvelden (METAR en TAF).

De beschikbare stations zijn de gele en rode punten op de kaart.

Ga met uw muis naar het station om de naam te zien.

Klik dan om waarnemingen en weersverwachtingen te zien.

kaart wijzigen: klik op de groene knoppen met een zwart kruis om in te zoomen, op de groene knop met een streepje om uit te zoomen of op de groene pijlen voor aangrenzende kaarten.


METAR-TAF: